createdAt,value
2023-05-02T00:00:12.546Z,506.3
2023-05-02T00:01:14.340Z,505.9
2023-05-02T00:02:16.707Z,506.3
2023-05-02T00:03:19.535Z,505.9
2023-05-02T00:04:21.711Z,506
2023-05-02T00:05:23.930Z,505.8
2023-05-02T00:06:26.083Z,505.7
2023-05-02T00:07:27.944Z,505.7
2023-05-02T00:08:29.586Z,505.9
2023-05-02T00:09:31.415Z,505.8
2023-05-02T00:10:33.247Z,505.4
2023-05-02T00:11:34.859Z,505.9
2023-05-02T00:12:36.771Z,505.6
2023-05-02T00:13:38.466Z,505
2023-05-02T00:14:40.277Z,505.9
2023-05-02T00:15:42.021Z,505.5
2023-05-02T00:16:44.096Z,505.6
2023-05-02T00:17:46.053Z,505.9
2023-05-02T00:18:47.869Z,505.8
2023-05-02T00:19:49.670Z,505.6
2023-05-02T00:20:51.568Z,505.7
2023-05-02T00:21:53.515Z,505.6
2023-05-02T00:22:55.335Z,505.6
2023-05-02T00:23:57.215Z,505.5
2023-05-02T00:24:58.962Z,505.6
2023-05-02T00:26:00.754Z,505.6
2023-05-02T00:27:02.562Z,505.6
2023-05-02T00:28:04.413Z,505.6
2023-05-02T00:29:06.276Z,505.5
2023-05-02T00:30:07.960Z,505.5
2023-05-02T00:31:09.964Z,504.9
2023-05-02T00:32:11.825Z,505
2023-05-02T00:33:14.213Z,505.2
2023-05-02T00:34:16.231Z,504.8
2023-05-02T00:35:18.188Z,504.7
2023-05-02T00:36:20.143Z,504.9
2023-05-02T00:37:21.994Z,504.8
2023-05-02T00:38:23.865Z,504.8
2023-05-02T00:39:25.620Z,504.8
2023-05-02T00:40:27.517Z,504.5
2023-05-02T00:41:29.247Z,504.5
2023-05-02T00:42:30.945Z,504.6
2023-05-02T00:43:32.790Z,504.4
2023-05-02T00:44:34.433Z,504.4
2023-05-02T00:45:36.018Z,503.9
2023-05-02T00:46:38.153Z,503.9
2023-05-02T00:47:40.004Z,503.6
2023-05-02T00:48:41.934Z,503.4
2023-05-02T00:49:43.636Z,503.5
2023-05-02T00:50:45.326Z,503.5
2023-05-02T00:51:47.038Z,503.7
2023-05-02T00:52:48.821Z,503.7
2023-05-02T00:53:50.551Z,503.6
2023-05-02T00:54:52.317Z,503.3
2023-05-02T00:55:53.888Z,503.6
2023-05-02T00:56:55.571Z,503.4
2023-05-02T00:57:57.448Z,503.5
2023-05-02T00:58:59.417Z,503.7
2023-05-02T01:00:02.522Z,503.4
2023-05-02T01:01:04.446Z,503.5
2023-05-02T01:02:06.797Z,503.5
2023-05-02T01:03:08.987Z,503.7
2023-05-02T01:04:11.320Z,503.8
2023-05-02T01:05:13.374Z,504
2023-05-02T01:06:15.274Z,503.7
2023-05-02T01:07:17.177Z,504.1
2023-05-02T01:08:19.024Z,504.3
2023-05-02T01:09:21.004Z,504.2
2023-05-02T01:10:22.946Z,504.1
2023-05-02T01:11:24.775Z,504.1
2023-05-02T01:12:26.727Z,504
2023-05-02T01:13:28.601Z,504.1
2023-05-02T01:14:30.548Z,504.4
2023-05-02T01:15:32.400Z,503.8
2023-05-02T01:16:34.695Z,504
2023-05-02T01:17:36.503Z,503.9
2023-05-02T01:18:38.094Z,503.8
2023-05-02T01:19:39.882Z,504
2023-05-02T01:20:41.757Z,504.2
2023-05-02T01:21:43.688Z,504.2
2023-05-02T01:22:45.536Z,504.6
2023-05-02T01:23:47.392Z,504.7
2023-05-02T01:24:49.283Z,504.8
2023-05-02T01:25:53.752Z,504.7
2023-05-02T01:26:55.492Z,504.8
2023-05-02T01:27:57.350Z,504.9
2023-05-02T01:28:59.206Z,505.3
2023-05-02T01:30:02.344Z,505.2
2023-05-02T01:31:04.598Z,505.4
2023-05-02T01:32:06.816Z,505.6
2023-05-02T01:33:08.970Z,505.8
2023-05-02T01:34:10.738Z,505.9
2023-05-02T01:35:12.645Z,505.9
2023-05-02T01:36:14.491Z,505.9
2023-05-02T01:37:16.159Z,506.2
2023-05-02T01:38:20.691Z,506
2023-05-02T01:39:22.452Z,505.8
2023-05-02T01:40:24.364Z,505.6
2023-05-02T01:41:25.986Z,505.7
2023-05-02T01:42:27.860Z,505.6
2023-05-02T01:43:29.647Z,505.3
2023-05-02T01:44:31.232Z,505.2
2023-05-02T01:45:33.001Z,505.1
2023-05-02T01:46:35.192Z,504.9
2023-05-02T01:47:37.212Z,504.8
2023-05-02T01:48:39.155Z,504.2
2023-05-02T01:49:41.114Z,504.5
2023-05-02T01:50:42.923Z,504.2
2023-05-02T01:51:44.558Z,504
2023-05-02T01:52:46.160Z,504
2023-05-02T01:53:47.807Z,503.7
2023-05-02T01:54:49.545Z,503.9
2023-05-02T01:55:51.520Z,503.7
2023-05-02T01:56:53.359Z,503.7
2023-05-02T01:57:55.102Z,503.7
2023-05-02T01:58:56.958Z,503.9
2023-05-02T02:00:00.214Z,503.6
2023-05-02T02:01:02.638Z,504
2023-05-02T02:02:04.642Z,503.7
2023-05-02T02:03:06.622Z,503.6
2023-05-02T02:04:08.767Z,504.2
2023-05-02T02:05:10.606Z,504.3
2023-05-02T02:06:12.826Z,504.5
2023-05-02T02:07:14.621Z,504.6
2023-05-02T02:08:16.231Z,504.4
2023-05-02T02:09:18.022Z,504.3
2023-05-02T02:10:19.661Z,504.7
2023-05-02T02:11:21.282Z,504.8
2023-05-02T02:12:22.934Z,504.5
2023-05-02T02:13:24.786Z,504.4
2023-05-02T02:14:26.634Z,504.2
2023-05-02T02:15:28.491Z,504.1
2023-05-02T02:16:30.563Z,503.7
2023-05-02T02:17:32.624Z,504.3
2023-05-02T02:18:34.554Z,503.7
2023-05-02T02:19:36.298Z,503.7
2023-05-02T02:20:37.893Z,503.5
2023-05-02T02:21:39.685Z,503.6
2023-05-02T02:22:41.374Z,503.6
2023-05-02T02:23:43.189Z,503.8
2023-05-02T02:24:45.034Z,503.8
2023-05-02T02:25:46.886Z,503.7
2023-05-02T02:26:48.748Z,503.7
2023-05-02T02:27:50.367Z,503.8
2023-05-02T02:28:52.131Z,503.6
2023-05-02T02:29:53.988Z,504.5
2023-05-02T02:30:56.047Z,504.2
2023-05-02T02:31:57.883Z,504.1
2023-05-02T02:32:59.973Z,504.3
2023-05-02T02:34:01.891Z,504.1
2023-05-02T02:35:03.648Z,504
2023-05-02T02:36:05.502Z,503.7
2023-05-02T02:37:07.345Z,503.6
2023-05-02T02:38:09.084Z,503.6
2023-05-02T02:39:10.675Z,503.9
2023-05-02T02:40:12.244Z,504.2
2023-05-02T02:41:14.228Z,504.3
2023-05-02T02:42:16.116Z,503.8
2023-05-02T02:43:17.914Z,503.4
2023-05-02T02:44:19.611Z,503.6
2023-05-02T02:45:21.297Z,503.6
2023-05-02T02:46:23.213Z,503.6
2023-05-02T02:47:25.001Z,503.5
2023-05-02T02:48:26.960Z,503.4
2023-05-02T02:49:28.744Z,503.8
2023-05-02T02:50:30.560Z,503.9
2023-05-02T02:51:32.416Z,503.8
2023-05-02T02:52:34.256Z,503.8
2023-05-02T02:53:36.328Z,503.6
2023-05-02T02:54:37.988Z,503.7
2023-05-02T02:55:39.658Z,503.4
2023-05-02T02:56:41.278Z,503.6
2023-05-02T02:57:42.870Z,503.7
2023-05-02T02:58:44.511Z,503.3
2023-05-02T02:59:46.293Z,503.5
2023-05-02T03:00:48.075Z,503.3
2023-05-02T03:01:50.131Z,503.4
2023-05-02T03:02:52.201Z,503
2023-05-02T03:03:54.323Z,503.1
2023-05-02T03:04:56.165Z,503.2
2023-05-02T03:05:57.998Z,502.9
2023-05-02T03:06:59.711Z,502.7
2023-05-02T03:08:01.423Z,502.9
2023-05-02T03:09:03.223Z,502.6
2023-05-02T03:10:05.030Z,502.9
2023-05-02T03:11:06.851Z,503.1
2023-05-02T03:12:08.562Z,501.9
2023-05-02T03:13:10.370Z,502.5
2023-05-02T03:14:11.994Z,502.2
2023-05-02T03:15:13.944Z,502.1
2023-05-02T03:16:15.815Z,501.6
2023-05-02T03:17:17.636Z,502.2
2023-05-02T03:18:19.703Z,501.6
2023-05-02T03:19:21.554Z,502.1
2023-05-02T03:20:23.218Z,501.5
2023-05-02T03:21:24.786Z,501.7
2023-05-02T03:22:26.375Z,501.2
2023-05-02T03:23:28.152Z,501.2
2023-05-02T03:24:30.081Z,500.9
2023-05-02T03:25:31.950Z,501.1
2023-05-02T03:26:33.774Z,500.9
2023-05-02T03:27:35.445Z,500.8
2023-05-02T03:28:37.421Z,500.7
2023-05-02T03:29:39.057Z,500.9
2023-05-02T03:30:41.076Z,500.6
2023-05-02T03:31:43.456Z,500.2
2023-05-02T03:32:45.521Z,500.1
2023-05-02T03:33:47.339Z,500.1
2023-05-02T03:34:49.186Z,500.2
2023-05-02T03:35:50.943Z,500.3
2023-05-02T03:36:52.785Z,500.4
2023-05-02T03:37:54.567Z,500.4
2023-05-02T03:38:56.443Z,500.4
2023-05-02T03:39:59.286Z,500.5
2023-05-02T03:41:01.312Z,500.4
2023-05-02T03:42:03.180Z,500.3
2023-05-02T03:43:05.019Z,500.2
2023-05-02T03:44:07.111Z,500.5
2023-05-02T03:45:08.937Z,500.5
2023-05-02T03:46:10.780Z,500.3
2023-05-02T03:47:13.125Z,500.2
2023-05-02T03:48:15.284Z,499.9
2023-05-02T03:49:17.133Z,499.9
2023-05-02T03:50:18.860Z,499.4
2023-05-02T03:51:20.832Z,499.7
2023-05-02T03:52:22.787Z,499.4
2023-05-02T03:53:24.542Z,499.7
2023-05-02T03:54:26.374Z,499.4
2023-05-02T03:55:31.086Z,499.5
2023-05-02T03:56:32.960Z,499.7
2023-05-02T03:57:34.913Z,499.7
2023-05-02T03:58:36.770Z,499.3
2023-05-02T03:59:38.451Z,500
2023-05-02T04:00:40.106Z,500.2
2023-05-02T04:01:42.316Z,499.8
2023-05-02T04:02:44.726Z,499.6
2023-05-02T04:03:47.418Z,499.6
2023-05-02T04:04:49.499Z,500
2023-05-02T04:05:51.281Z,499.9
2023-05-02T04:06:53.339Z,500.1
2023-05-02T04:07:55.163Z,499.9
2023-05-02T04:08:57.015Z,499.9
2023-05-02T04:10:00.456Z,499.6
2023-05-02T04:11:02.449Z,499.6
2023-05-02T04:12:04.389Z,499.7
2023-05-02T04:13:06.440Z,499
2023-05-02T04:14:08.172Z,499.6
2023-05-02T04:15:09.970Z,499.1
2023-05-02T04:16:11.819Z,499.5
2023-05-02T04:17:14.303Z,499.4
2023-05-02T04:18:16.581Z,499.6
2023-05-02T04:19:18.471Z,499.4
2023-05-02T04:20:20.333Z,499.8
2023-05-02T04:21:22.263Z,499.5
2023-05-02T04:22:24.116Z,499.2
2023-05-02T04:23:25.978Z,499.4
2023-05-02T04:24:27.929Z,499.1
2023-05-02T04:25:29.777Z,499.2
2023-05-02T04:26:31.621Z,499.6
2023-05-02T04:27:33.480Z,499.2
2023-05-02T04:28:35.326Z,499.3
2023-05-02T04:29:37.142Z,499.7
2023-05-02T04:30:39.281Z,499.3
2023-05-02T04:31:40.952Z,499.2
2023-05-02T04:32:42.970Z,499
2023-05-02T04:33:44.802Z,499.5
2023-05-02T04:34:46.631Z,499
2023-05-02T04:35:48.496Z,499.4
2023-05-02T04:36:50.321Z,498.7
2023-05-02T04:37:51.976Z,499.2
2023-05-02T04:38:56.690Z,498.7
2023-05-02T04:39:59.658Z,499.2
2023-05-02T04:41:10.251Z,498.9
2023-05-02T04:42:12.019Z,498.8
2023-05-02T04:43:13.816Z,498.9
2023-05-02T04:44:15.557Z,498.6
2023-05-02T04:45:17.509Z,498.6
2023-05-02T04:46:19.572Z,498.3
2023-05-02T04:47:21.759Z,498.3
2023-05-02T04:48:23.878Z,498.3
2023-05-02T04:49:25.840Z,498.4
2023-05-02T04:50:27.438Z,498.5
2023-05-02T04:51:29.255Z,498.5
2023-05-02T04:52:31.193Z,498.2
2023-05-02T04:53:33.022Z,498.3
2023-05-02T04:54:34.988Z,497.8
2023-05-02T04:55:36.663Z,498.2
2023-05-02T04:56:38.484Z,498.2
2023-05-02T04:57:40.306Z,498.4
2023-05-02T04:58:42.326Z,498.6
2023-05-02T04:59:44.333Z,498.6
2023-05-02T05:00:46.190Z,498.6
2023-05-02T05:01:48.311Z,498.4
2023-05-02T05:02:50.626Z,498.6
2023-05-02T05:03:52.878Z,498.7
2023-05-02T05:04:55.028Z,498.4
2023-05-02T05:05:56.974Z,498.5
2023-05-02T05:06:59.396Z,498.2
2023-05-02T05:08:01.123Z,498.2
2023-05-02T05:09:02.849Z,497.9
2023-05-02T05:10:04.780Z,498.4
2023-05-02T05:11:06.639Z,498.3
2023-05-02T05:12:08.494Z,498.4
2023-05-02T05:13:10.427Z,498.5
2023-05-02T05:14:12.194Z,498.7
2023-05-02T05:15:14.139Z,498.3
2023-05-02T05:16:16.305Z,498.7
2023-05-02T05:17:18.171Z,498.6
2023-05-02T05:18:19.882Z,498.5
2023-05-02T05:19:21.762Z,498.6
2023-05-02T05:20:23.723Z,498.3
2023-05-02T05:21:25.543Z,498.7
2023-05-02T05:22:27.295Z,498.3
2023-05-02T05:23:29.139Z,498.2
2023-05-02T05:24:30.829Z,498.4
2023-05-02T05:25:32.540Z,498.3
2023-05-02T05:26:34.177Z,498.2
2023-05-02T05:27:36.020Z,498.1
2023-05-02T05:28:37.997Z,497.7
2023-05-02T05:29:39.726Z,497.5
2023-05-02T05:30:41.574Z,497.5
2023-05-02T05:31:43.551Z,497.5
2023-05-02T05:32:45.831Z,497.3
2023-05-02T05:33:48.043Z,497
2023-05-02T05:34:49.843Z,497.1
2023-05-02T05:35:51.538Z,497.3
2023-05-02T05:36:53.185Z,497.4
2023-05-02T05:37:54.861Z,497.5
2023-05-02T05:38:56.660Z,497.4
2023-05-02T05:39:59.835Z,497.8
2023-05-02T05:41:01.736Z,497.3
2023-05-02T05:42:03.362Z,497.2
2023-05-02T05:43:05.241Z,497.1
2023-05-02T05:44:07.129Z,497
2023-05-02T05:45:09.269Z,496.5
2023-05-02T05:46:10.829Z,496.8
2023-05-02T05:47:12.959Z,496.9
2023-05-02T05:48:15.524Z,497
2023-05-02T05:49:17.412Z,497
2023-05-02T05:50:19.390Z,496.9
2023-05-02T05:51:21.176Z,496.7
2023-05-02T05:52:23.090Z,497.2
2023-05-02T05:53:24.778Z,497.2
2023-05-02T05:54:26.483Z,497.1
2023-05-02T05:55:28.329Z,497.1
2023-05-02T05:56:30.095Z,496.9
2023-05-02T05:57:31.844Z,497.2
2023-05-02T05:58:33.578Z,497
2023-05-02T05:59:35.417Z,496.8
2023-05-02T06:00:37.039Z,496.9
2023-05-02T06:01:38.860Z,496.8
2023-05-02T06:02:41.004Z,496.7
2023-05-02T06:03:43.435Z,496.3
2023-05-02T06:04:45.560Z,496.6
2023-05-02T06:05:47.456Z,496.3
2023-05-02T06:06:49.770Z,496.2
2023-05-02T06:07:51.756Z,495.9
2023-05-02T06:08:53.721Z,496.1
2023-05-02T06:09:55.567Z,496.1
2023-05-02T06:10:57.413Z,496.3
2023-05-02T06:11:59.268Z,496.2
2023-05-02T06:13:01.226Z,496.4
2023-05-02T06:14:03.000Z,496.6
2023-05-02T06:15:04.719Z,496.8
2023-05-02T06:16:06.763Z,497
2023-05-02T06:17:08.538Z,497
2023-05-02T06:18:10.706Z,497
2023-05-02T06:19:12.437Z,497.3
2023-05-02T06:20:18.598Z,497.1
2023-05-02T06:21:20.524Z,497.6
2023-05-02T06:22:22.592Z,497.3
2023-05-02T06:23:24.321Z,497.5
2023-05-02T06:24:26.043Z,497.5
2023-05-02T06:25:27.819Z,497.6
2023-05-02T06:26:29.683Z,498
2023-05-02T06:27:34.289Z,497.8
2023-05-02T06:28:36.136Z,497.5
2023-05-02T06:29:37.880Z,497.7
2023-05-02T06:30:39.945Z,497.8
2023-05-02T06:31:41.904Z,497.9
2023-05-02T06:32:44.259Z,497.4
2023-05-02T06:33:45.895Z,497.6
2023-05-02T06:34:47.504Z,497.8
2023-05-02T06:35:49.299Z,497.7
2023-05-02T06:36:51.080Z,497.6
2023-05-02T06:37:52.889Z,497.8
2023-05-02T06:38:54.686Z,497.9
2023-05-02T06:39:56.481Z,498.3
2023-05-02T06:40:58.257Z,498
2023-05-02T06:42:00.009Z,498
2023-05-02T06:43:01.831Z,497.7
2023-05-02T06:44:03.670Z,497.4
2023-05-02T06:45:08.321Z,497.6
2023-05-02T06:46:10.330Z,497.7
2023-05-02T06:47:12.494Z,497.6
2023-05-02T06:48:14.483Z,497.5
2023-05-02T06:49:16.332Z,497.8
2023-05-02T06:50:18.131Z,498.1
2023-05-02T06:51:19.920Z,497.8
2023-05-02T06:52:21.702Z,498
2023-05-02T06:53:23.314Z,498
2023-05-02T06:54:25.041Z,498.5
2023-05-02T06:55:26.685Z,498.3
2023-05-02T06:56:28.664Z,498.3
2023-05-02T06:57:30.573Z,498.1
2023-05-02T06:58:32.553Z,498.4
2023-05-02T06:59:34.290Z,497.9
2023-05-02T07:00:36.162Z,498.1
2023-05-02T07:01:38.971Z,498
2023-05-02T07:02:41.251Z,498.1
2023-05-02T07:03:43.335Z,498.5
2023-05-02T07:04:45.508Z,498.4
2023-05-02T07:05:47.255Z,498.6
2023-05-02T07:06:49.415Z,498.5
2023-05-02T07:07:51.230Z,498.6
2023-05-02T07:08:53.204Z,498.8
2023-05-02T07:09:54.869Z,498.8
2023-05-02T07:10:56.467Z,498.9
2023-05-02T07:11:58.058Z,498.8
2023-05-02T07:12:59.656Z,498.7
2023-05-02T07:14:01.358Z,498.6
2023-05-02T07:15:03.012Z,498.6
2023-05-02T07:16:04.834Z,498.4
2023-05-02T07:17:07.097Z,498.4
2023-05-02T07:18:09.264Z,498.2
2023-05-02T07:19:11.008Z,498.1
2023-05-02T07:20:12.839Z,498.4
2023-05-02T07:21:14.717Z,498.3
2023-05-02T07:22:16.365Z,498.4
2023-05-02T07:23:18.182Z,498.3
2023-05-02T07:24:19.924Z,498.3
2023-05-02T07:25:21.572Z,498.4
2023-05-02T07:26:23.302Z,498.2
2023-05-02T07:27:25.162Z,498.6
2023-05-02T07:28:26.901Z,498.1
2023-05-02T07:29:28.662Z,498.6
2023-05-02T07:30:30.714Z,498.3
2023-05-02T07:31:32.582Z,498.3
2023-05-02T07:32:34.894Z,498.7
2023-05-02T07:33:36.740Z,498.3
2023-05-02T07:34:38.357Z,498.7
2023-05-02T07:35:40.098Z,498.5
2023-05-02T07:36:41.969Z,498.6
2023-05-02T07:37:43.674Z,498.7
2023-05-02T07:38:45.474Z,499
2023-05-02T07:39:47.191Z,498.7
2023-05-02T07:40:48.825Z,498.9
2023-05-02T07:41:50.446Z,498.4
2023-05-02T07:42:52.128Z,498.6
2023-05-02T07:43:53.797Z,498.4
2023-05-02T07:44:55.399Z,498.4
2023-05-02T07:45:57.304Z,498.4
2023-05-02T07:46:59.015Z,498.1
2023-05-02T07:48:01.097Z,498.1
2023-05-02T07:49:02.776Z,498.2
2023-05-02T07:50:05.088Z,498.3
2023-05-02T07:51:06.723Z,498.1
2023-05-02T07:52:08.336Z,498.2
2023-05-02T07:53:09.960Z,498.2
2023-05-02T07:54:11.564Z,498.6
2023-05-02T07:55:13.211Z,498.8
2023-05-02T07:56:15.008Z,498.8
2023-05-02T07:57:16.617Z,497.9
2023-05-02T07:58:18.418Z,497.9
2023-05-02T07:59:20.161Z,498.3
2023-05-02T08:00:21.932Z,498.3
2023-05-02T08:01:23.501Z,498.7
2023-05-02T08:02:25.589Z,498.7
2023-05-02T08:03:28.188Z,498.4
2023-05-02T08:04:30.429Z,498.8
2023-05-02T08:05:32.205Z,499
2023-05-02T08:06:34.160Z,499.2
2023-05-02T08:07:37.868Z,499
2023-05-02T08:08:39.473Z,499.1
2023-05-02T08:09:41.333Z,499
2023-05-02T08:10:43.121Z,498.8
2023-05-02T08:11:44.739Z,498.8
2023-05-02T08:12:49.129Z,498.8
2023-05-02T08:13:51.028Z,499
2023-05-02T08:14:52.639Z,498.4
2023-05-02T08:15:54.518Z,498.7
2023-05-02T08:16:56.347Z,498.6
2023-05-02T08:17:58.311Z,498.5
2023-05-02T08:19:00.131Z,499.2
2023-05-02T08:20:03.255Z,499.4
2023-05-02T08:21:05.003Z,499.2
2023-05-02T08:22:06.742Z,499.6
2023-05-02T08:23:08.592Z,499.2
2023-05-02T08:24:10.403Z,499.4
2023-05-02T08:25:12.169Z,499.1
2023-05-02T08:26:14.105Z,500
2023-05-02T08:27:15.757Z,499.3
2023-05-02T08:28:17.488Z,499.7
2023-05-02T08:29:19.078Z,499
2023-05-02T08:30:20.713Z,499.4
2023-05-02T08:31:23.014Z,499.3
2023-05-02T08:32:24.927Z,499.5
2023-05-02T08:33:26.653Z,499.9
2023-05-02T08:34:28.248Z,499.4
2023-05-02T08:35:29.895Z,499.1
2023-05-02T08:36:31.539Z,499.4
2023-05-02T08:37:33.364Z,499.7
2023-05-02T08:38:35.417Z,499.7
2023-05-02T08:39:37.160Z,499.3
2023-05-02T08:40:43.832Z,499.7
2023-05-02T08:41:45.553Z,499.6
2023-05-02T08:42:47.299Z,499
2023-05-02T08:43:48.998Z,499
2023-05-02T08:44:50.695Z,498.9
2023-05-02T08:45:52.313Z,499.3
2023-05-02T08:46:54.122Z,499.8
2023-05-02T08:47:56.137Z,498.8
2023-05-02T08:48:57.788Z,499
2023-05-02T08:50:00.776Z,499.3
2023-05-02T08:51:02.746Z,499.6
2023-05-02T08:52:04.374Z,499.5
2023-05-02T08:53:06.028Z,499.1
2023-05-02T08:54:07.681Z,499.1
2023-05-02T08:55:09.438Z,499.2
2023-05-02T08:56:11.109Z,499.2
2023-05-02T08:57:12.991Z,499.4
2023-05-02T08:58:18.231Z,499.7
2023-05-02T08:59:20.896Z,499.5
2023-05-02T09:00:22.855Z,499.8
2023-05-02T09:01:24.964Z,499.8
2023-05-02T09:02:27.279Z,499.9
2023-05-02T09:03:29.154Z,499.9
2023-05-02T09:04:31.354Z,500.4
2023-05-02T09:05:33.812Z,500.6
2023-05-02T09:06:35.910Z,500.4
2023-05-02T09:07:37.945Z,500.8
2023-05-02T09:08:39.883Z,500.8
2023-05-02T09:09:41.709Z,500.7
2023-05-02T09:10:43.495Z,500.7
2023-05-02T09:11:45.342Z,501.3
2023-05-02T09:12:47.194Z,501
2023-05-02T09:13:49.019Z,501.1
2023-05-02T09:14:50.887Z,501.1
2023-05-02T09:15:53.051Z,500.9
2023-05-02T09:16:55.078Z,500.8
2023-05-02T09:17:57.071Z,501.2
2023-05-02T09:18:58.905Z,500.5
2023-05-02T09:20:00.768Z,501
2023-05-02T09:21:02.450Z,501.4
2023-05-02T09:22:04.104Z,501.5
2023-05-02T09:23:05.796Z,501.7
2023-05-02T09:24:07.455Z,501.7
2023-05-02T09:25:09.433Z,501.5
2023-05-02T09:26:11.100Z,501.3
2023-05-02T09:27:12.747Z,501.9
2023-05-02T09:28:14.472Z,501.8
2023-05-02T09:29:16.070Z,502.1
2023-05-02T09:30:18.031Z,502.2
2023-05-02T09:31:57.078Z,501.8
2023-05-02T09:32:58.993Z,501.5
2023-05-02T09:34:00.732Z,502.5
2023-05-02T09:35:02.713Z,502.7
2023-05-02T09:36:04.401Z,502.3
2023-05-02T09:37:06.160Z,502.3
2023-05-02T09:38:07.793Z,502.1
2023-05-02T09:39:09.379Z,502.2
2023-05-02T09:40:11.029Z,502.6
2023-05-02T09:41:12.684Z,502.2
2023-05-02T09:42:14.515Z,502.7
2023-05-02T09:43:16.126Z,502.4
2023-05-02T09:44:17.743Z,502.9
2023-05-02T09:45:19.382Z,502.6
2023-05-02T09:46:21.254Z,502.6
2023-05-02T09:47:22.988Z,502.5
2023-05-02T09:48:24.579Z,502.8
2023-05-02T09:49:26.252Z,503.4
2023-05-02T09:50:27.864Z,503.1
2023-05-02T09:51:29.488Z,502.9
2023-05-02T09:52:31.135Z,503
2023-05-02T09:53:32.762Z,503.2
2023-05-02T09:54:34.856Z,503.6
2023-05-02T09:55:36.463Z,503.7
2023-05-02T09:56:38.081Z,503.9
2023-05-02T09:57:39.744Z,504.1
2023-05-02T09:58:41.337Z,503.9
2023-05-02T09:59:43.049Z,503.5
2023-05-02T10:00:44.649Z,503.7
2023-05-02T10:01:46.393Z,503.9
2023-05-02T10:02:48.262Z,503.9
2023-05-02T10:03:50.187Z,504
2023-05-02T10:04:51.939Z,504
2023-05-02T10:05:53.537Z,504
2023-05-02T10:06:55.122Z,504.6
2023-05-02T10:07:56.946Z,504.6
2023-05-02T10:08:58.579Z,504.2
2023-05-02T10:10:00.401Z,504.2
2023-05-02T10:11:02.020Z,504.7
2023-05-02T10:12:03.695Z,504.6
2023-05-02T10:13:05.399Z,504.4
2023-05-02T10:14:06.986Z,505.1
2023-05-02T10:15:08.611Z,505.4
2023-05-02T10:16:10.506Z,505.2
2023-05-02T10:17:12.189Z,505
2023-05-02T10:18:14.174Z,505.3
2023-05-02T10:19:15.864Z,505.1
2023-05-02T10:20:17.908Z,505.5
2023-05-02T10:21:19.747Z,505.1
2023-05-02T10:22:21.571Z,505.1
2023-05-02T10:23:23.422Z,505.5
2023-05-02T10:24:25.274Z,505.4
2023-05-02T10:25:27.130Z,505.4
2023-05-02T10:26:28.999Z,505.9
2023-05-02T10:27:30.951Z,505.9
2023-05-02T10:28:32.596Z,505.8
2023-05-02T10:29:34.220Z,506.1
2023-05-02T10:30:36.090Z,505.9
2023-05-02T10:31:38.347Z,505.9
2023-05-02T10:32:40.405Z,506.4
2023-05-02T10:33:42.264Z,506.6
2023-05-02T10:34:43.989Z,506.6
2023-05-02T10:35:45.615Z,506.7
2023-05-02T10:36:47.466Z,506.9
2023-05-02T10:37:49.236Z,506.7
2023-05-02T10:38:51.067Z,507.1
2023-05-02T10:39:52.879Z,506.9
2023-05-02T10:40:55.791Z,506.9
2023-05-02T10:41:57.512Z,506.9
2023-05-02T10:42:59.391Z,507.1
2023-05-02T10:44:01.044Z,507
2023-05-02T10:45:03.702Z,506.8
2023-05-02T10:46:05.584Z,507.4
2023-05-02T10:47:07.527Z,507.2
2023-05-02T10:48:09.577Z,507.2
2023-05-02T10:49:11.301Z,507.2
2023-05-02T10:50:13.056Z,507.5
2023-05-02T10:51:14.815Z,507.3
2023-05-02T10:52:16.650Z,507.4
2023-05-02T10:53:18.485Z,507.4
2023-05-02T10:54:20.374Z,507.3
2023-05-02T10:55:22.312Z,507.5
2023-05-02T10:56:29.144Z,507.7
2023-05-02T10:57:31.191Z,508
2023-05-02T10:58:32.898Z,507.5
2023-05-02T10:59:34.753Z,507.5
2023-05-02T11:00:36.781Z,508.1
2023-05-02T11:01:38.753Z,507.6
2023-05-02T11:02:40.780Z,507.7
2023-05-02T11:03:42.420Z,508.2
2023-05-02T11:04:44.442Z,508.6
2023-05-02T11:05:46.126Z,508.5
2023-05-02T11:06:48.155Z,508.5
2023-05-02T11:07:49.958Z,508.4
2023-05-02T11:08:51.630Z,507.9
2023-05-02T11:09:53.275Z,508.4
2023-05-02T11:10:55.070Z,508.1
2023-05-02T11:11:56.931Z,508.3
2023-05-02T11:12:58.867Z,508.4
2023-05-02T11:14:00.664Z,508.4
2023-05-02T11:15:03.858Z,508.7
2023-05-02T11:16:05.886Z,508.5
2023-05-02T11:17:08.013Z,508.7
2023-05-02T11:18:10.305Z,508.7
2023-05-02T11:19:12.163Z,508.8
2023-05-02T11:20:14.084Z,508.9
2023-05-02T11:21:15.934Z,508.9
2023-05-02T11:22:17.929Z,508.9
2023-05-02T11:23:19.934Z,509
2023-05-02T11:24:21.846Z,508.4
2023-05-02T11:25:23.825Z,509.2
2023-05-02T11:26:25.602Z,509
2023-05-02T11:27:27.445Z,509.8
2023-05-02T11:28:29.187Z,509
2023-05-02T11:29:31.047Z,509.6
2023-05-02T11:30:32.932Z,509.4
2023-05-02T11:31:34.831Z,509.4
2023-05-02T11:32:37.064Z,509.3
2023-05-02T11:33:38.725Z,509.5
2023-05-02T11:34:40.346Z,509.6
2023-05-02T11:35:41.953Z,509.4
2023-05-02T11:36:43.607Z,509.5
2023-05-02T11:37:45.255Z,509.3
2023-05-02T11:38:47.042Z,509.5
2023-05-02T11:39:48.791Z,509.2
2023-05-02T11:40:50.562Z,509.7
2023-05-02T11:41:52.350Z,510
2023-05-02T11:42:54.139Z,510.3
2023-05-02T11:43:56.293Z,509.7
2023-05-02T11:44:59.196Z,510.2
2023-05-02T11:46:02.434Z,510.8
2023-05-02T11:47:04.520Z,510.4
2023-05-02T11:48:06.713Z,511.1
2023-05-02T11:49:14.226Z,510.5
2023-05-02T11:50:16.488Z,511.3
2023-05-02T11:51:18.360Z,510.8
2023-05-02T11:52:20.214Z,510.8
2023-05-02T11:53:21.928Z,510.5
2023-05-02T11:54:23.555Z,510.9
2023-05-02T11:55:25.163Z,510.4
2023-05-02T11:56:26.825Z,510.7
2023-05-02T11:57:28.550Z,510.9
2023-05-02T11:58:30.561Z,511
2023-05-02T11:59:32.448Z,511.5
2023-05-02T12:00:34.229Z,511.6
2023-05-02T12:01:35.952Z,510.8
2023-05-02T12:02:38.435Z,511.7
2023-05-02T12:03:41.071Z,511.5
2023-05-02T12:04:42.998Z,511.5
2023-05-02T12:05:44.796Z,512.2
2023-05-02T12:06:46.669Z,511.9
2023-05-02T12:07:48.477Z,512.3
2023-05-02T12:08:50.439Z,512.3
2023-05-02T12:09:52.155Z,512.8
2023-05-02T12:10:54.040Z,513
2023-05-02T12:11:55.883Z,513.2
2023-05-02T12:12:57.729Z,513.4
2023-05-02T12:13:59.514Z,513.1
2023-05-02T12:15:02.660Z,513
2023-05-02T12:16:04.849Z,513.1
2023-05-02T12:17:06.698Z,513.5
2023-05-02T12:18:08.786Z,513.7
2023-05-02T12:19:10.604Z,514.1
2023-05-02T12:20:12.406Z,514.2
2023-05-02T12:21:14.165Z,514.4
2023-05-02T12:22:15.767Z,514.8
2023-05-02T12:23:17.490Z,514.2
2023-05-02T12:24:19.219Z,514.1
2023-05-02T12:25:21.092Z,514
2023-05-02T12:26:23.150Z,513.8
2023-05-02T12:27:24.969Z,513.6
2023-05-02T12:28:26.916Z,514
2023-05-02T12:29:28.886Z,514.2
2023-05-02T12:30:30.716Z,514.3
2023-05-02T12:31:32.953Z,514.4
2023-05-02T12:32:35.045Z,514.7
2023-05-02T12:33:36.824Z,515.1
2023-05-02T12:34:38.751Z,514.6
2023-05-02T12:35:40.611Z,514.8
2023-05-02T12:36:42.429Z,514.8
2023-05-02T12:37:47.657Z,515.2
2023-05-02T12:38:49.530Z,515.8
2023-05-02T12:39:51.459Z,516
2023-05-02T12:40:53.513Z,516.1
2023-05-02T12:41:55.264Z,516.2
2023-05-02T12:42:57.108Z,516.7
2023-05-02T12:43:58.842Z,516.9
2023-05-02T12:45:00.800Z,516.5
2023-05-02T12:46:02.772Z,516.7
2023-05-02T12:47:04.772Z,516.7
2023-05-02T12:48:06.695Z,517.1
2023-05-02T12:49:08.573Z,517
2023-05-02T12:50:10.578Z,517.3
2023-05-02T12:51:12.329Z,516.7
2023-05-02T12:52:14.165Z,516.7
2023-05-02T12:53:15.917Z,516.7
2023-05-02T12:54:17.777Z,517.5
2023-05-02T12:55:19.655Z,516.5
2023-05-02T12:56:21.478Z,516.5
2023-05-02T12:57:23.216Z,516.8
2023-05-02T12:58:25.003Z,516.7
2023-05-02T12:59:26.812Z,517
2023-05-02T13:00:28.605Z,517
2023-05-02T13:01:30.470Z,517.6
2023-05-02T13:02:32.665Z,517
2023-05-02T13:03:35.140Z,517.1
2023-05-02T13:04:36.996Z,516.8
2023-05-02T13:05:38.847Z,516.7
2023-05-02T13:06:40.880Z,517
2023-05-02T13:07:42.725Z,517.1
2023-05-02T13:08:44.505Z,517
2023-05-02T13:09:46.401Z,517
2023-05-02T13:10:48.292Z,516.8
2023-05-02T13:11:49.940Z,516.9
2023-05-02T13:12:51.679Z,516.9
2023-05-02T13:13:53.643Z,517.3
2023-05-02T13:14:55.612Z,516.8
2023-05-02T13:15:57.450Z,517.1
2023-05-02T13:16:59.743Z,516.8
2023-05-02T13:18:02.414Z,516.3
2023-05-02T13:19:04.724Z,516.5
2023-05-02T13:20:07.960Z,516.3
2023-05-02T13:21:09.985Z,516.3
2023-05-02T13:22:11.934Z,516.3
2023-05-02T13:23:13.768Z,516.4